sensor_id;sensor_type;location;lat;lon;timestamp;temperature;humidity
63094;DHT22;49183;51.380;0.098;2023-07-22T03:54:26;12.50;90.40
63094;DHT22;49183;51.380;0.098;2023-07-22T06:34:48;12.90;91.10
63094;DHT22;49183;51.380;0.098;2023-07-22T06:37:16;12.90;91.10
63094;DHT22;49183;51.380;0.098;2023-07-22T06:39:43;13.00;91.10
63094;DHT22;49183;51.380;0.098;2023-07-22T06:42:18;12.90;91.20
63094;DHT22;49183;51.380;0.098;2023-07-22T06:44:46;12.90;91.20
63094;DHT22;49183;51.380;0.098;2023-07-22T06:47:14;12.90;91.20
63094;DHT22;49183;51.380;0.098;2023-07-22T06:49:41;12.90;91.30
63094;DHT22;49183;51.380;0.098;2023-07-22T06:55:30;12.90;91.40
63094;DHT22;49183;51.380;0.098;2023-07-22T06:57:58;13.00;91.40
63094;DHT22;49183;51.380;0.098;2023-07-22T07:00:27;13.00;91.40
63094;DHT22;49183;51.380;0.098;2023-07-22T07:02:54;13.00;91.50
63094;DHT22;49183;51.380;0.098;2023-07-22T07:05:22;13.00;91.50
63094;DHT22;49183;51.380;0.098;2023-07-22T07:07:50;13.00;91.60
63094;DHT22;49183;51.380;0.098;2023-07-22T07:10:17;13.00;91.60
63094;DHT22;49183;51.380;0.098;2023-07-22T07:12:45;13.00;91.60
63094;DHT22;49183;51.380;0.098;2023-07-22T07:15:13;13.00;91.70
63094;DHT22;49183;51.380;0.098;2023-07-22T07:17:41;13.00;91.70
63094;DHT22;49183;51.380;0.098;2023-07-22T07:20:08;13.10;91.70
63094;DHT22;49183;51.380;0.098;2023-07-22T07:22:36;13.20;91.70
63094;DHT22;49183;51.380;0.098;2023-07-22T07:25:03;13.20;91.60
63094;DHT22;49183;51.380;0.098;2023-07-22T07:27:31;13.10;91.70
63094;DHT22;49183;51.380;0.098;2023-07-22T07:29:58;13.20;91.70
63094;DHT22;49183;51.380;0.098;2023-07-22T07:32:26;13.20;91.70
63094;DHT22;49183;51.380;0.098;2023-07-22T07:34:54;13.20;91.70
63094;DHT22;49183;51.380;0.098;2023-07-22T07:37:22;13.10;91.80
63094;DHT22;49183;51.380;0.098;2023-07-22T07:39:49;13.10;91.90
63094;DHT22;49183;51.380;0.098;2023-07-22T07:42:17;13.10;91.90
63094;DHT22;49183;51.380;0.098;2023-07-22T07:44:45;13.10;92.00
63094;DHT22;49183;51.380;0.098;2023-07-22T07:47:13;13.10;92.10
63094;DHT22;49183;51.380;0.098;2023-07-22T07:49:40;13.20;92.10
63094;DHT22;49183;51.380;0.098;2023-07-22T07:52:08;13.20;92.10
63094;DHT22;49183;51.380;0.098;2023-07-22T07:54:35;13.20;92.20
63094;DHT22;49183;51.380;0.098;2023-07-22T07:57:03;13.20;92.20
63094;DHT22;49183;51.380;0.098;2023-07-22T07:59:31;13.30;92.20
63094;DHT22;49183;51.380;0.098;2023-07-22T08:01:58;13.30;92.20
63094;DHT22;49183;51.380;0.098;2023-07-22T08:04:26;13.30;92.20
63094;DHT22;49183;51.380;0.098;2023-07-22T08:06:53;13.30;92.10
63094;DHT22;49183;51.380;0.098;2023-07-22T08:09:21;13.30;92.10
63094;DHT22;49183;51.380;0.098;2023-07-22T08:11:49;13.30;92.10
63094;DHT22;49183;51.380;0.098;2023-07-22T08:14:16;13.30;92.10
63094;DHT22;49183;51.380;0.098;2023-07-22T08:16:45;13.30;92.10
63094;DHT22;49183;51.380;0.098;2023-07-22T08:19:13;13.30;92.10
63094;DHT22;49183;51.380;0.098;2023-07-22T08:21:40;13.30;92.10
63094;DHT22;49183;51.380;0.098;2023-07-22T08:24:08;13.30;92.10
63094;DHT22;49183;51.380;0.098;2023-07-22T08:26:36;13.30;92.10
63094;DHT22;49183;51.380;0.098;2023-07-22T08:29:04;13.30;92.10
63094;DHT22;49183;51.380;0.098;2023-07-22T08:31:31;13.30;92.20
63094;DHT22;49183;51.380;0.098;2023-07-22T08:33:59;13.30;92.30
63094;DHT22;49183;51.380;0.098;2023-07-22T08:36:27;13.30;92.30
63094;DHT22;49183;51.380;0.098;2023-07-22T08:38:55;13.30;92.30
63094;DHT22;49183;51.380;0.098;2023-07-22T08:41:22;13.30;92.30
63094;DHT22;49183;51.380;0.098;2023-07-22T08:43:52;13.30;92.30
63094;DHT22;49183;51.380;0.098;2023-07-22T08:46:22;13.30;92.30
63094;DHT22;49183;51.380;0.098;2023-07-22T08:48:51;13.30;92.30
63094;DHT22;49183;51.380;0.098;2023-07-22T08:51:20;13.40;92.40
63094;DHT22;49183;51.380;0.098;2023-07-22T08:53:50;13.40;92.30
63094;DHT22;49183;51.380;0.098;2023-07-22T08:56:35;13.40;92.30
63094;DHT22;49183;51.380;0.098;2023-07-22T08:59:04;13.40;92.40
63094;DHT22;49183;51.380;0.098;2023-07-22T09:01:33;13.50;92.40
63094;DHT22;49183;51.380;0.098;2023-07-22T09:04:02;13.50;92.40
63094;DHT22;49183;51.380;0.098;2023-07-22T09:06:30;13.60;92.40
63094;DHT22;49183;51.380;0.098;2023-07-22T09:08:57;13.60;92.30
63094;DHT22;49183;51.380;0.098;2023-07-22T09:11:25;13.70;92.40
63094;DHT22;49183;51.380;0.098;2023-07-22T09:13:53;13.80;92.30
63094;DHT22;49183;51.380;0.098;2023-07-22T09:16:21;13.80;92.30
63094;DHT22;49183;51.380;0.098;2023-07-22T09:18:49;13.80;92.20
63094;DHT22;49183;51.380;0.098;2023-07-22T09:21:16;13.80;92.30
63094;DHT22;49183;51.380;0.098;2023-07-22T09:23:44;13.90;92.20
63094;DHT22;49183;51.380;0.098;2023-07-22T09:26:12;13.90;92.20
63094;DHT22;49183;51.380;0.098;2023-07-22T09:28:48;13.90;92.20
63094;DHT22;49183;51.380;0.098;2023-07-22T09:31:15;14.00;92.10
63094;DHT22;49183;51.380;0.098;2023-07-22T09:33:43;14.10;92.10
63094;DHT22;49183;51.380;0.098;2023-07-22T09:36:11;14.10;92.10
63094;DHT22;49183;51.380;0.098;2023-07-22T09:38:39;14.10;92.10
63094;DHT22;49183;51.380;0.098;2023-07-22T09:41:07;14.20;92.10
63094;DHT22;49183;51.380;0.098;2023-07-22T09:43:36;14.30;92.10
63094;DHT22;49183;51.380;0.098;2023-07-22T09:46:06;14.30;92.10
63094;DHT22;49183;51.380;0.098;2023-07-22T09:48:52;14.40;92.10
63094;DHT22;49183;51.380;0.098;2023-07-22T09:51:20;14.50;92.10
63094;DHT22;49183;51.380;0.098;2023-07-22T09:53:59;14.70;92.00
63094;DHT22;49183;51.380;0.098;2023-07-22T09:56:27;14.80;91.80
63094;DHT22;49183;51.380;0.098;2023-07-22T09:58:56;14.80;91.70
63094;DHT22;49183;51.380;0.098;2023-07-22T10:01:25;14.90;91.70
63094;DHT22;49183;51.380;0.098;2023-07-22T10:03:54;15.00;91.60
63094;DHT22;49183;51.380;0.098;2023-07-22T10:06:27;15.10;91.50
63094;DHT22;49183;51.380;0.098;2023-07-22T10:08:55;15.20;91.40
63094;DHT22;49183;51.380;0.098;2023-07-22T10:11:24;15.30;91.30
63094;DHT22;49183;51.380;0.098;2023-07-22T10:13:54;15.40;91.10
63094;DHT22;49183;51.380;0.098;2023-07-22T10:16:23;15.40;91.00
63094;DHT22;49183;51.380;0.098;2023-07-22T10:18:51;15.50;90.90
63094;DHT22;49183;51.380;0.098;2023-07-22T10:21:20;15.50;90.70
63094;DHT22;49183;51.380;0.098;2023-07-22T10:23:48;15.50;90.60
63094;DHT22;49183;51.380;0.098;2023-07-22T10:26:16;15.60;90.60
63094;DHT22;49183;51.380;0.098;2023-07-22T10:28:52;15.60;90.60
63094;DHT22;49183;51.380;0.098;2023-07-22T10:31:20;15.70;90.60
63094;DHT22;49183;51.380;0.098;2023-07-22T10:33:48;15.70;90.50
63094;DHT22;49183;51.380;0.098;2023-07-22T10:36:16;15.80;90.40
63094;DHT22;49183;51.380;0.098;2023-07-22T10:38:44;15.80;90.40
63094;DHT22;49183;51.380;0.098;2023-07-22T10:41:22;15.70;90.20
63094;DHT22;49183;51.380;0.098;2023-07-22T10:43:56;15.70;90.30
63094;DHT22;49183;51.380;0.098;2023-07-22T10:46:38;15.70;90.40
63094;DHT22;49183;51.380;0.098;2023-07-22T10:49:15;15.80;90.20
63094;DHT22;49183;51.380;0.098;2023-07-22T10:51:47;15.80;90.00
63094;DHT22;49183;51.380;0.098;2023-07-22T10:54:15;15.80;90.00
63094;DHT22;49183;51.380;0.098;2023-07-22T10:56:43;15.80;90.00
63094;DHT22;49183;51.380;0.098;2023-07-22T10:59:11;15.80;90.00
63094;DHT22;49183;51.380;0.098;2023-07-22T11:01:39;15.80;89.90
63094;DHT22;49183;51.380;0.098;2023-07-22T11:04:08;15.80;89.90
63094;DHT22;49183;51.380;0.098;2023-07-22T11:06:38;15.80;89.90
63094;DHT22;49183;51.380;0.098;2023-07-22T11:09:07;15.90;89.70
63094;DHT22;49183;51.380;0.098;2023-07-22T11:11:54;15.90;89.40
63094;DHT22;49183;51.380;0.098;2023-07-22T11:14:24;15.90;89.30
63094;DHT22;49183;51.380;0.098;2023-07-22T11:16:52;15.80;89.10
63094;DHT22;49183;51.380;0.098;2023-07-22T11:19:21;15.80;89.10
63094;DHT22;49183;51.380;0.098;2023-07-22T11:21:49;15.80;89.20
63094;DHT22;49183;51.380;0.098;2023-07-22T11:24:17;15.90;89.10
63094;DHT22;49183;51.380;0.098;2023-07-22T11:26:45;15.90;89.20
63094;DHT22;49183;51.380;0.098;2023-07-22T11:29:13;16.00;89.10
63094;DHT22;49183;51.380;0.098;2023-07-22T11:31:42;16.10;89.00
63094;DHT22;49183;51.380;0.098;2023-07-22T11:34:10;16.30;88.90
63094;DHT22;49183;51.380;0.098;2023-07-22T11:36:38;16.30;88.40
63094;DHT22;49183;51.380;0.098;2023-07-22T11:39:07;16.30;87.80
63094;DHT22;49183;51.380;0.098;2023-07-22T11:41:35;16.30;87.90
63094;DHT22;49183;51.380;0.098;2023-07-22T11:44:08;16.30;87.80
63094;DHT22;49183;51.380;0.098;2023-07-22T11:49:29;16.40;87.70
63094;DHT22;49183;51.380;0.098;2023-07-22T11:52:03;16.40;87.80
63094;DHT22;49183;51.380;0.098;2023-07-22T11:54:31;16.40;87.50
63094;DHT22;49183;51.380;0.098;2023-07-22T11:59:42;16.30;87.60
63094;DHT22;49183;51.380;0.098;2023-07-22T12:02:14;16.20;87.60
63094;DHT22;49183;51.380;0.098;2023-07-22T12:04:53;16.20;87.60
63094;DHT22;49183;51.380;0.098;2023-07-22T12:07:34;16.20;87.80
63094;DHT22;49183;51.380;0.098;2023-07-22T12:10:06;16.20;87.80
63094;DHT22;49183;51.380;0.098;2023-07-22T12:12:40;16.20;87.80
63094;DHT22;49183;51.380;0.098;2023-07-22T12:15:16;16.20;87.60
63094;DHT22;49183;51.380;0.098;2023-07-22T12:17:54;16.20;87.60
63094;DHT22;49183;51.380;0.098;2023-07-22T12:20:23;16.30;87.40
63094;DHT22;49183;51.380;0.098;2023-07-22T12:22:51;16.30;87.40
63094;DHT22;49183;51.380;0.098;2023-07-22T12:28:39;16.20;87.00
63094;DHT22;49183;51.380;0.098;2023-07-22T12:31:07;16.20;87.00
63094;DHT22;49183;51.380;0.098;2023-07-22T12:33:37;16.20;87.10
63094;DHT22;49183;51.380;0.098;2023-07-22T12:36:05;16.20;86.90
63094;DHT22;49183;51.380;0.098;2023-07-22T12:38:33;16.20;86.90
63094;DHT22;49183;51.380;0.098;2023-07-22T12:41:00;16.30;86.80
63094;DHT22;49183;51.380;0.098;2023-07-22T12:43:29;16.30;86.80
63094;DHT22;49183;51.380;0.098;2023-07-22T12:46:08;16.30;86.70
63094;DHT22;49183;51.380;0.098;2023-07-22T12:48:41;16.40;86.50
63094;DHT22;49183;51.380;0.098;2023-07-22T12:51:50;16.30;86.30
63094;DHT22;49183;51.380;0.098;2023-07-22T12:54:29;16.40;86.40
63094;DHT22;49183;51.380;0.098;2023-07-22T12:56:59;16.40;86.30
63094;DHT22;49183;51.380;0.098;2023-07-22T12:59:29;16.30;86.30
63094;DHT22;49183;51.380;0.098;2023-07-22T13:02:03;16.30;86.30
63094;DHT22;49183;51.380;0.098;2023-07-22T13:04:35;16.30;86.40
63094;DHT22;49183;51.380;0.098;2023-07-22T13:07:03;16.30;86.40
63094;DHT22;49183;51.380;0.098;2023-07-22T13:09:31;16.30;86.50
63094;DHT22;49183;51.380;0.098;2023-07-22T13:11:58;16.30;86.60
63094;DHT22;49183;51.380;0.098;2023-07-22T13:14:26;16.30;86.50
63094;DHT22;49183;51.380;0.098;2023-07-22T13:16:53;16.40;86.40
63094;DHT22;49183;51.380;0.098;2023-07-22T13:19:21;16.40;86.50
63094;DHT22;49183;51.380;0.098;2023-07-22T13:21:48;16.50;86.30
63094;DHT22;49183;51.380;0.098;2023-07-22T13:24:18;16.40;86.40
63094;DHT22;49183;51.380;0.098;2023-07-22T13:26:46;16.40;86.50
63094;DHT22;49183;51.380;0.098;2023-07-22T13:29:13;16.30;86.70
63094;DHT22;49183;51.380;0.098;2023-07-22T13:31:41;16.30;87.00
63094;DHT22;49183;51.380;0.098;2023-07-22T13:34:09;16.20;87.20
63094;DHT22;49183;51.380;0.098;2023-07-22T13:36:36;16.10;87.50
63094;DHT22;49183;51.380;0.098;2023-07-22T13:39:04;16.10;87.60
63094;DHT22;49183;51.380;0.098;2023-07-22T13:41:31;16.10;87.70
63094;DHT22;49183;51.380;0.098;2023-07-22T13:43:59;16.10;87.70
63094;DHT22;49183;51.380;0.098;2023-07-22T13:46:26;16.10;87.70
63094;DHT22;49183;51.380;0.098;2023-07-22T13:48:54;16.10;87.70
63094;DHT22;49183;51.380;0.098;2023-07-22T13:51:21;16.10;87.70
63094;DHT22;49183;51.380;0.098;2023-07-22T13:53:49;16.20;87.70
63094;DHT22;49183;51.380;0.098;2023-07-22T13:56:19;16.20;87.70
63094;DHT22;49183;51.380;0.098;2023-07-22T13:58:46;16.20;87.70
63094;DHT22;49183;51.380;0.098;2023-07-22T14:01:14;16.20;87.70
63094;DHT22;49183;51.380;0.098;2023-07-22T14:03:41;16.20;87.90
63094;DHT22;49183;51.380;0.098;2023-07-22T14:06:09;16.30;88.00
63094;DHT22;49183;51.380;0.098;2023-07-22T14:08:37;16.30;88.10
63094;DHT22;49183;51.380;0.098;2023-07-22T14:11:06;16.30;88.10
63094;DHT22;49183;51.380;0.098;2023-07-22T14:13:33;16.40;88.10
63094;DHT22;49183;51.380;0.098;2023-07-22T14:16:01;16.50;88.10
63094;DHT22;49183;51.380;0.098;2023-07-22T14:18:48;16.50;87.90
63094;DHT22;49183;51.380;0.098;2023-07-22T14:21:16;16.60;87.80
63094;DHT22;49183;51.380;0.098;2023-07-22T14:23:43;16.70;87.70
63094;DHT22;49183;51.380;0.098;2023-07-22T14:26:11;16.70;87.50
63094;DHT22;49183;51.380;0.098;2023-07-22T14:28:39;16.80;87.30
63094;DHT22;49183;51.380;0.098;2023-07-22T14:31:07;16.80;87.30
63094;DHT22;49183;51.380;0.098;2023-07-22T14:33:35;16.80;87.20
63094;DHT22;49183;51.380;0.098;2023-07-22T14:36:03;16.80;87.10
63094;DHT22;49183;51.380;0.098;2023-07-22T14:38:30;16.80;87.20
63094;DHT22;49183;51.380;0.098;2023-07-22T14:40:59;16.90;87.30
63094;DHT22;49183;51.380;0.098;2023-07-22T14:43:26;16.90;87.40
63094;DHT22;49183;51.380;0.098;2023-07-22T14:45:54;16.80;87.40
63094;DHT22;49183;51.380;0.098;2023-07-22T14:48:21;16.80;87.50
63094;DHT22;49183;51.380;0.098;2023-07-22T14:50:49;16.80;87.70
63094;DHT22;49183;51.380;0.098;2023-07-22T14:53:17;16.70;87.90
63094;DHT22;49183;51.380;0.098;2023-07-22T14:55:45;16.70;88.20
63094;DHT22;49183;51.380;0.098;2023-07-22T14:58:12;16.60;88.50
63094;DHT22;49183;51.380;0.098;2023-07-22T15:00:39;16.60;88.70
63094;DHT22;49183;51.380;0.098;2023-07-22T15:03:08;16.50;88.90
63094;DHT22;49183;51.380;0.098;2023-07-22T15:05:35;16.50;89.10
63094;DHT22;49183;51.380;0.098;2023-07-22T15:08:03;16.50;89.30
63094;DHT22;49183;51.380;0.098;2023-07-22T15:10:30;16.40;89.40
63094;DHT22;49183;51.380;0.098;2023-07-22T15:12:58;16.50;89.60
63094;DHT22;49183;51.380;0.098;2023-07-22T15:15:26;16.40;89.70
63094;DHT22;49183;51.380;0.098;2023-07-22T15:17:53;16.50;89.80
63094;DHT22;49183;51.380;0.098;2023-07-22T15:20:20;16.50;89.80
63094;DHT22;49183;51.380;0.098;2023-07-22T15:22:48;16.60;89.90
63094;DHT22;49183;51.380;0.098;2023-07-22T15:25:17;16.50;90.00
63094;DHT22;49183;51.380;0.098;2023-07-22T15:27:45;16.60;90.00
63094;DHT22;49183;51.380;0.098;2023-07-22T15:30:13;16.50;90.10
63094;DHT22;49183;51.380;0.098;2023-07-22T15:32:40;16.50;90.10
63094;DHT22;49183;51.380;0.098;2023-07-22T15:35:08;16.60;90.30
63094;DHT22;49183;51.380;0.098;2023-07-22T15:37:35;16.60;90.30
63094;DHT22;49183;51.380;0.098;2023-07-22T15:40:03;16.80;90.40
63094;DHT22;49183;51.380;0.098;2023-07-22T15:42:31;16.80;90.30
63094;DHT22;49183;51.380;0.098;2023-07-22T15:44:59;16.90;90.20
63094;DHT22;49183;51.380;0.098;2023-07-22T15:47:26;16.90;90.10
63094;DHT22;49183;51.380;0.098;2023-07-22T15:49:54;17.10;90.10
63094;DHT22;49183;51.380;0.098;2023-07-22T15:52:21;17.20;90.10
63094;DHT22;49183;51.380;0.098;2023-07-22T15:54:50;17.30;89.90
63094;DHT22;49183;51.380;0.098;2023-07-22T15:57:18;17.30;89.90
63094;DHT22;49183;51.380;0.098;2023-07-22T15:59:45;17.40;89.70
63094;DHT22;49183;51.380;0.098;2023-07-22T16:02:13;17.50;89.50
63094;DHT22;49183;51.380;0.098;2023-07-22T16:04:41;17.50;89.40
63094;DHT22;49183;51.380;0.098;2023-07-22T16:07:09;17.60;89.20
63094;DHT22;49183;51.380;0.098;2023-07-22T16:09:36;17.60;89.20
63094;DHT22;49183;51.380;0.098;2023-07-22T16:12:04;17.60;89.20
63094;DHT22;49183;51.380;0.098;2023-07-22T16:14:32;17.60;89.10
63094;DHT22;49183;51.380;0.098;2023-07-22T16:16:59;17.70;89.10
63094;DHT22;49183;51.380;0.098;2023-07-22T16:19:27;17.70;89.10
63094;DHT22;49183;51.380;0.098;2023-07-22T16:21:54;17.70;89.00
63094;DHT22;49183;51.380;0.098;2023-07-22T16:24:22;17.60;89.20
63094;DHT22;49183;51.380;0.098;2023-07-22T16:26:49;17.60;89.20
63094;DHT22;49183;51.380;0.098;2023-07-22T16:29:17;17.60;89.20
63094;DHT22;49183;51.380;0.098;2023-07-22T16:31:47;17.60;89.20
63094;DHT22;49183;51.380;0.098;2023-07-22T16:34:15;17.60;89.40
63094;DHT22;49183;51.380;0.098;2023-07-22T16:37:03;17.60;89.50
63094;DHT22;49183;51.380;0.098;2023-07-22T16:39:30;17.60;89.50
63094;DHT22;49183;51.380;0.098;2023-07-22T16:41:58;17.70;89.60
63094;DHT22;49183;51.380;0.098;2023-07-22T16:44:26;17.80;89.60
63094;DHT22;49183;51.380;0.098;2023-07-22T16:46:54;17.90;89.60
63094;DHT22;49183;51.380;0.098;2023-07-22T16:49:22;17.90;89.40
63094;DHT22;49183;51.380;0.098;2023-07-22T16:51:50;18.00;89.40
63094;DHT22;49183;51.380;0.098;2023-07-22T16:54:17;18.10;89.30
63094;DHT22;49183;51.380;0.098;2023-07-22T16:56:45;18.20;89.20
63094;DHT22;49183;51.380;0.098;2023-07-22T16:59:12;18.10;89.20
63094;DHT22;49183;51.380;0.098;2023-07-22T17:01:40;18.20;89.20
63094;DHT22;49183;51.380;0.098;2023-07-22T17:04:07;18.10;89.20
63094;DHT22;49183;51.380;0.098;2023-07-22T17:06:35;18.10;89.20
63094;DHT22;49183;51.380;0.098;2023-07-22T17:09:02;18.00;89.40
63094;DHT22;49183;51.380;0.098;2023-07-22T17:11:30;18.00;89.50
63094;DHT22;49183;51.380;0.098;2023-07-22T17:13:58;18.10;89.60
63094;DHT22;49183;51.380;0.098;2023-07-22T17:16:26;18.10;89.60
63094;DHT22;49183;51.380;0.098;2023-07-22T17:18:54;18.10;89.70
63094;DHT22;49183;51.380;0.098;2023-07-22T17:21:21;18.00;89.80
63094;DHT22;49183;51.380;0.098;2023-07-22T17:23:49;18.00;89.80
63094;DHT22;49183;51.380;0.098;2023-07-22T17:26:16;18.00;89.90
63094;DHT22;49183;51.380;0.098;2023-07-22T17:28:44;18.00;90.00
63094;DHT22;49183;51.380;0.098;2023-07-22T17:31:11;17.90;90.00
63094;DHT22;49183;51.380;0.098;2023-07-22T17:33:43;17.90;90.00
63094;DHT22;49183;51.380;0.098;2023-07-22T17:36:11;17.90;90.00
63094;DHT22;49183;51.380;0.098;2023-07-22T17:38:39;17.80;90.10
63094;DHT22;49183;51.380;0.098;2023-07-22T17:41:08;17.80;90.20
63094;DHT22;49183;51.380;0.098;2023-07-22T17:43:35;17.70;90.30
63094;DHT22;49183;51.380;0.098;2023-07-22T17:46:04;17.80;90.40
63094;DHT22;49183;51.380;0.098;2023-07-22T17:48:31;17.70;90.40
63094;DHT22;49183;51.380;0.098;2023-07-22T17:50:59;17.70;90.40
63094;DHT22;49183;51.380;0.098;2023-07-22T17:53:27;17.70;90.40
63094;DHT22;49183;51.380;0.098;2023-07-22T17:55:54;17.60;90.40
63094;DHT22;49183;51.380;0.098;2023-07-22T17:58:22;17.60;90.50
63094;DHT22;49183;51.380;0.098;2023-07-22T18:00:49;17.60;90.50
63094;DHT22;49183;51.380;0.098;2023-07-22T18:03:17;17.60;90.60
63094;DHT22;49183;51.380;0.098;2023-07-22T18:05:48;17.60;90.70
63094;DHT22;49183;51.380;0.098;2023-07-22T18:08:16;17.50;90.70
63094;DHT22;49183;51.380;0.098;2023-07-22T18:10:43;17.50;90.80
63094;DHT22;49183;51.380;0.098;2023-07-22T18:13:11;17.50;90.80
63094;DHT22;49183;51.380;0.098;2023-07-22T18:15:38;17.50;90.90
63094;DHT22;49183;51.380;0.098;2023-07-22T18:18:07;17.50;90.90
63094;DHT22;49183;51.380;0.098;2023-07-22T18:20:34;17.40;90.90
63094;DHT22;49183;51.380;0.098;2023-07-22T18:23:02;17.40;91.00
63094;DHT22;49183;51.380;0.098;2023-07-22T18:25:29;17.40;91.00
63094;DHT22;49183;51.380;0.098;2023-07-22T18:27:57;17.40;91.10
63094;DHT22;49183;51.380;0.098;2023-07-22T18:30:25;17.40;91.10
63094;DHT22;49183;51.380;0.098;2023-07-22T18:32:52;17.40;91.20
63094;DHT22;49183;51.380;0.098;2023-07-22T18:35:20;17.40;91.30
63094;DHT22;49183;51.380;0.098;2023-07-22T18:37:47;17.30;91.50
63094;DHT22;49183;51.380;0.098;2023-07-22T18:40:15;17.30;91.50
63094;DHT22;49183;51.380;0.098;2023-07-22T18:42:42;17.30;91.60
63094;DHT22;49183;51.380;0.098;2023-07-22T18:45:10;17.30;91.60
63094;DHT22;49183;51.380;0.098;2023-07-22T18:47:38;17.30;91.70
63094;DHT22;49183;51.380;0.098;2023-07-22T18:50:06;17.30;91.70
63094;DHT22;49183;51.380;0.098;2023-07-22T18:52:34;17.30;91.80
63094;DHT22;49183;51.380;0.098;2023-07-22T18:55:02;17.30;91.90
63094;DHT22;49183;51.380;0.098;2023-07-22T18:57:29;17.20;91.90
63094;DHT22;49183;51.380;0.098;2023-07-22T18:59:57;17.20;92.00
63094;DHT22;49183;51.380;0.098;2023-07-22T19:02:24;17.20;92.00
63094;DHT22;49183;51.380;0.098;2023-07-22T19:04:52;17.20;92.00
63094;DHT22;49183;51.380;0.098;2023-07-22T19:07:22;17.20;92.00
63094;DHT22;49183;51.380;0.098;2023-07-22T19:09:50;17.20;92.00
63094;DHT22;49183;51.380;0.098;2023-07-22T19:12:17;17.10;92.10
63094;DHT22;49183;51.380;0.098;2023-07-22T19:14:45;17.10;92.10
63094;DHT22;49183;51.380;0.098;2023-07-22T19:17:12;17.10;92.10
63094;DHT22;49183;51.380;0.098;2023-07-22T19:19:40;17.10;92.20
63094;DHT22;49183;51.380;0.098;2023-07-22T19:22:09;17.10;92.20
63094;DHT22;49183;51.380;0.098;2023-07-22T19:24:36;17.10;92.30
63094;DHT22;49183;51.380;0.098;2023-07-22T19:27:04;17.10;92.30
63094;DHT22;49183;51.380;0.098;2023-07-22T19:29:31;17.10;92.30
63094;DHT22;49183;51.380;0.098;2023-07-22T19:31:59;17.10;92.30
63094;DHT22;49183;51.380;0.098;2023-07-22T19:34:27;17.10;92.40
63094;DHT22;49183;51.380;0.098;2023-07-22T19:36:54;17.00;92.40
63094;DHT22;49183;51.380;0.098;2023-07-22T19:39:22;17.10;92.40
63094;DHT22;49183;51.380;0.098;2023-07-22T19:41:49;17.00;92.40
63094;DHT22;49183;51.380;0.098;2023-07-22T19:44:17;17.00;92.40
63094;DHT22;49183;51.380;0.098;2023-07-22T19:46:44;17.00;92.40
63094;DHT22;49183;51.380;0.098;2023-07-22T19:49:12;17.00;92.40
63094;DHT22;49183;51.380;0.098;2023-07-22T19:51:39;17.00;92.50
63094;DHT22;49183;51.380;0.098;2023-07-22T19:54:07;17.00;92.50
63094;DHT22;49183;51.380;0.098;2023-07-22T19:56:35;17.00;92.40
63094;DHT22;49183;51.380;0.098;2023-07-22T19:59:03;16.90;92.50
63094;DHT22;49183;51.380;0.098;2023-07-22T20:01:30;16.90;92.40
63094;DHT22;49183;51.380;0.098;2023-07-22T20:03:58;16.90;92.50
63094;DHT22;49183;51.380;0.098;2023-07-22T20:06:31;16.80;92.50
63094;DHT22;49183;51.380;0.098;2023-07-22T20:08:58;16.90;92.50
63094;DHT22;49183;51.380;0.098;2023-07-22T20:11:26;16.80;92.50
63094;DHT22;49183;51.380;0.098;2023-07-22T20:13:54;16.80;92.50
63094;DHT22;49183;51.380;0.098;2023-07-22T20:16:21;16.80;92.50
63094;DHT22;49183;51.380;0.098;2023-07-22T20:18:49;16.80;92.50
63094;DHT22;49183;51.380;0.098;2023-07-22T20:21:17;16.80;92.50
63094;DHT22;49183;51.380;0.098;2023-07-22T20:23:44;16.80;92.50
63094;DHT22;49183;51.380;0.098;2023-07-22T20:26:13;16.70;92.60
63094;DHT22;49183;51.380;0.098;2023-07-22T20:28:40;16.70;92.60
63094;DHT22;49183;51.380;0.098;2023-07-22T20:31:13;16.70;92.60
63094;DHT22;49183;51.380;0.098;2023-07-22T20:33:41;16.70;92.60
63094;DHT22;49183;51.380;0.098;2023-07-22T20:36:08;16.70;92.60
63094;DHT22;49183;51.380;0.098;2023-07-22T20:38:38;16.70;92.70
63094;DHT22;49183;51.380;0.098;2023-07-22T20:41:05;16.70;92.70
63094;DHT22;49183;51.380;0.098;2023-07-22T20:43:33;16.60;92.70
63094;DHT22;49183;51.380;0.098;2023-07-22T20:46:02;16.60;92.70
63094;DHT22;49183;51.380;0.098;2023-07-22T20:48:31;16.60;92.70
63094;DHT22;49183;51.380;0.098;2023-07-22T20:50:58;16.60;92.70
63094;DHT22;49183;51.380;0.098;2023-07-22T20:53:26;16.60;92.70
63094;DHT22;49183;51.380;0.098;2023-07-22T20:55:57;16.60;92.70
63094;DHT22;49183;51.380;0.098;2023-07-22T20:58:25;16.50;92.80
63094;DHT22;49183;51.380;0.098;2023-07-22T21:00:53;16.50;92.80
63094;DHT22;49183;51.380;0.098;2023-07-22T21:03:21;16.40;92.90
63094;DHT22;49183;51.380;0.098;2023-07-22T21:05:56;16.40;93.00
63094;DHT22;49183;51.380;0.098;2023-07-22T21:08:24;16.30;93.00
63094;DHT22;49183;51.380;0.098;2023-07-22T21:10:53;16.30;93.10
63094;DHT22;49183;51.380;0.098;2023-07-22T21:13:22;16.30;93.10
63094;DHT22;49183;51.380;0.098;2023-07-22T21:15:50;16.30;93.20
63094;DHT22;49183;51.380;0.098;2023-07-22T21:18:25;16.20;93.20
63094;DHT22;49183;51.380;0.098;2023-07-22T21:20:52;16.20;93.30
63094;DHT22;49183;51.380;0.098;2023-07-22T21:23:19;16.20;93.30
63094;DHT22;49183;51.380;0.098;2023-07-22T21:25:47;16.10;93.30
63094;DHT22;49183;51.380;0.098;2023-07-22T21:28:14;16.10;93.30
63094;DHT22;49183;51.380;0.098;2023-07-22T21:30:45;16.10;93.40
63094;DHT22;49183;51.380;0.098;2023-07-22T21:33:12;16.10;93.40
63094;DHT22;49183;51.380;0.098;2023-07-22T21:35:40;16.00;93.40
63094;DHT22;49183;51.380;0.098;2023-07-22T21:38:07;16.00;93.40
63094;DHT22;49183;51.380;0.098;2023-07-22T21:40:35;16.00;93.40
63094;DHT22;49183;51.380;0.098;2023-07-22T21:43:02;16.00;93.50
63094;DHT22;49183;51.380;0.098;2023-07-22T21:45:30;16.00;93.50
63094;DHT22;49183;51.380;0.098;2023-07-22T21:47:58;15.90;93.50
63094;DHT22;49183;51.380;0.098;2023-07-22T21:50:25;15.90;93.50
63094;DHT22;49183;51.380;0.098;2023-07-22T21:52:53;15.90;93.50
63094;DHT22;49183;51.380;0.098;2023-07-22T21:55:23;15.90;93.50
63094;DHT22;49183;51.380;0.098;2023-07-22T21:57:51;15.90;93.50
63094;DHT22;49183;51.380;0.098;2023-07-22T22:00:18;15.80;93.60
63094;DHT22;49183;51.380;0.098;2023-07-22T22:02:46;15.90;93.60
63094;DHT22;49183;51.380;0.098;2023-07-22T22:05:14;15.90;93.60
63094;DHT22;49183;51.380;0.098;2023-07-22T22:07:41;15.90;93.60
63094;DHT22;49183;51.380;0.098;2023-07-22T22:10:09;15.90;93.60
63094;DHT22;49183;51.380;0.098;2023-07-22T22:12:37;15.90;93.50
63094;DHT22;49183;51.380;0.098;2023-07-22T22:15:05;15.80;93.60
63094;DHT22;49183;51.380;0.098;2023-07-22T22:17:33;15.90;93.60
63094;DHT22;49183;51.380;0.098;2023-07-22T22:20:12;15.80;93.60
63094;DHT22;49183;51.380;0.098;2023-07-22T22:22:40;15.80;93.60